sensor_id;sensor_type;location;lat;lon;timestamp;P1;durP1;ratioP1;P2;durP2;ratioP2
73814;SDS011;62145;55.648;37.602;2024-01-10T00:00:08;6.13;;;1.45;;
73814;SDS011;62145;55.648;37.602;2024-01-10T00:02:34;5.93;;;1.37;;
73814;SDS011;62145;55.648;37.602;2024-01-10T00:05:00;4.70;;;1.58;;
73814;SDS011;62145;55.648;37.602;2024-01-10T00:07:26;7.82;;;1.67;;
73814;SDS011;62145;55.648;37.602;2024-01-10T00:09:53;4.53;;;1.57;;
73814;SDS011;62145;55.648;37.602;2024-01-10T00:12:19;3.30;;;1.15;;
73814;SDS011;62145;55.648;37.602;2024-01-10T00:14:45;3.08;;;0.98;;
73814;SDS011;62145;55.648;37.602;2024-01-10T00:17:11;4.63;;;1.40;;
73814;SDS011;62145;55.648;37.602;2024-01-10T00:19:37;5.75;;;1.58;;
73814;SDS011;62145;55.648;37.602;2024-01-10T00:22:04;4.63;;;1.03;;
73814;SDS011;62145;55.648;37.602;2024-01-10T00:24:30;4.75;;;1.40;;
73814;SDS011;62145;55.648;37.602;2024-01-10T00:26:56;5.95;;;1.58;;
73814;SDS011;62145;55.648;37.602;2024-01-10T00:29:22;3.30;;;1.00;;
73814;SDS011;62145;55.648;37.602;2024-01-10T00:31:48;4.07;;;0.97;;
73814;SDS011;62145;55.648;37.602;2024-01-10T00:34:14;4.30;;;1.52;;
73814;SDS011;62145;55.648;37.602;2024-01-10T00:36:40;5.07;;;1.23;;
73814;SDS011;62145;55.648;37.602;2024-01-10T00:39:06;4.32;;;1.30;;
73814;SDS011;62145;55.648;37.602;2024-01-10T00:41:32;2.23;;;0.47;;
73814;SDS011;62145;55.648;37.602;2024-01-10T00:43:58;3.47;;;0.82;;
73814;SDS011;62145;55.648;37.602;2024-01-10T00:46:23;3.00;;;0.80;;
73814;SDS011;62145;55.648;37.602;2024-01-10T00:48:50;2.70;;;0.50;;
73814;SDS011;62145;55.648;37.602;2024-01-10T00:51:16;3.35;;;1.05;;
73814;SDS011;62145;55.648;37.602;2024-01-10T00:53:42;2.45;;;0.55;;
73814;SDS011;62145;55.648;37.602;2024-01-10T00:56:08;2.25;;;0.70;;
73814;SDS011;62145;55.648;37.602;2024-01-10T00:58:35;4.17;;;1.53;;
73814;SDS011;62145;55.648;37.602;2024-01-10T01:01:01;3.13;;;0.52;;
73814;SDS011;62145;55.648;37.602;2024-01-10T01:03:27;3.75;;;1.00;;
73814;SDS011;62145;55.648;37.602;2024-01-10T01:05:53;3.03;;;0.95;;
73814;SDS011;62145;55.648;37.602;2024-01-10T01:08:19;3.27;;;0.73;;
73814;SDS011;62145;55.648;37.602;2024-01-10T01:10:45;3.15;;;0.68;;
73814;SDS011;62145;55.648;37.602;2024-01-10T01:13:11;2.50;;;0.70;;
73814;SDS011;62145;55.648;37.602;2024-01-10T01:15:37;3.20;;;0.70;;
73814;SDS011;62145;55.648;37.602;2024-01-10T01:18:03;2.33;;;0.40;;
73814;SDS011;62145;55.648;37.602;2024-01-10T01:20:29;1.60;;;0.30;;
73814;SDS011;62145;55.648;37.602;2024-01-10T01:22:55;2.45;;;0.50;;
73814;SDS011;62145;55.648;37.602;2024-01-10T01:25:20;2.83;;;0.50;;
73814;SDS011;62145;55.648;37.602;2024-01-10T01:27:46;2.63;;;0.60;;
73814;SDS011;62145;55.648;37.602;2024-01-10T01:30:12;2.03;;;0.50;;
73814;SDS011;62145;55.648;37.602;2024-01-10T01:32:38;2.08;;;0.55;;
73814;SDS011;62145;55.648;37.602;2024-01-10T01:35:04;1.55;;;0.30;;
73814;SDS011;62145;55.648;37.602;2024-01-10T01:37:31;2.28;;;0.50;;
73814;SDS011;62145;55.648;37.602;2024-01-10T01:39:57;3.92;;;0.90;;
73814;SDS011;62145;55.648;37.602;2024-01-10T01:42:23;1.15;;;0.22;;
73814;SDS011;62145;55.648;37.602;2024-01-10T01:44:49;2.17;;;0.47;;
73814;SDS011;62145;55.648;37.602;2024-01-10T01:47:16;2.27;;;0.50;;
73814;SDS011;62145;55.648;37.602;2024-01-10T01:49:42;1.67;;;0.30;;
73814;SDS011;62145;55.648;37.602;2024-01-10T01:52:09;3.03;;;0.70;;
73814;SDS011;62145;55.648;37.602;2024-01-10T01:54:36;2.15;;;0.32;;
73814;SDS011;62145;55.648;37.602;2024-01-10T01:57:02;2.17;;;0.40;;
73814;SDS011;62145;55.648;37.602;2024-01-10T01:59:28;1.80;;;0.50;;
73814;SDS011;62145;55.648;37.602;2024-01-10T02:01:55;2.45;;;0.50;;
73814;SDS011;62145;55.648;37.602;2024-01-10T02:04:22;1.85;;;0.38;;
73814;SDS011;62145;55.648;37.602;2024-01-10T02:06:48;3.22;;;0.60;;
73814;SDS011;62145;55.648;37.602;2024-01-10T02:09:14;2.37;;;0.60;;
73814;SDS011;62145;55.648;37.602;2024-01-10T02:11:40;1.60;;;0.20;;
73814;SDS011;62145;55.648;37.602;2024-01-10T02:14:06;3.85;;;0.50;;
73814;SDS011;62145;55.648;37.602;2024-01-10T02:16:32;1.73;;;0.20;;
73814;SDS011;62145;55.648;37.602;2024-01-10T02:18:58;2.00;;;0.30;;
73814;SDS011;62145;55.648;37.602;2024-01-10T02:21:25;1.58;;;0.20;;
73814;SDS011;62145;55.648;37.602;2024-01-10T02:23:51;1.45;;;0.20;;
73814;SDS011;62145;55.648;37.602;2024-01-10T02:26:17;1.17;;;0.20;;
73814;SDS011;62145;55.648;37.602;2024-01-10T02:28:44;1.00;;;0.20;;
73814;SDS011;62145;55.648;37.602;2024-01-10T02:31:09;1.75;;;0.20;;
73814;SDS011;62145;55.648;37.602;2024-01-10T02:33:35;1.08;;;0.15;;
73814;SDS011;62145;55.648;37.602;2024-01-10T02:36:01;1.90;;;0.23;;
73814;SDS011;62145;55.648;37.602;2024-01-10T02:38:28;1.63;;;0.20;;
73814;SDS011;62145;55.648;37.602;2024-01-10T02:40:54;1.15;;;0.20;;
73814;SDS011;62145;55.648;37.602;2024-01-10T02:43:22;1.50;;;0.30;;
73814;SDS011;62145;55.648;37.602;2024-01-10T02:45:48;1.45;;;0.20;;
73814;SDS011;62145;55.648;37.602;2024-01-10T02:48:14;0.90;;;0.17;;
73814;SDS011;62145;55.648;37.602;2024-01-10T02:50:40;1.63;;;0.40;;
73814;SDS011;62145;55.648;37.602;2024-01-10T02:53:06;1.33;;;0.20;;
73814;SDS011;62145;55.648;37.602;2024-01-10T02:55:32;0.63;;;0.10;;
73814;SDS011;62145;55.648;37.602;2024-01-10T02:57:58;1.02;;;0.10;;
73814;SDS011;62145;55.648;37.602;2024-01-10T03:00:24;0.70;;;0.10;;
73814;SDS011;62145;55.648;37.602;2024-01-10T03:02:50;0.45;;;0.10;;
73814;SDS011;62145;55.648;37.602;2024-01-10T03:05:16;0.50;;;0.03;;
73814;SDS011;62145;55.648;37.602;2024-01-10T03:07:42;1.17;;;0.20;;
73814;SDS011;62145;55.648;37.602;2024-01-10T03:10:08;2.20;;;0.30;;
73814;SDS011;62145;55.648;37.602;2024-01-10T03:12:34;1.60;;;0.30;;
73814;SDS011;62145;55.648;37.602;2024-01-10T03:15:04;1.63;;;0.32;;
73814;SDS011;62145;55.648;37.602;2024-01-10T03:17:31;3.07;;;0.60;;
73814;SDS011;62145;55.648;37.602;2024-01-10T03:19:59;2.78;;;0.50;;
73814;SDS011;62145;55.648;37.602;2024-01-10T03:22:25;2.67;;;0.38;;
73814;SDS011;62145;55.648;37.602;2024-01-10T03:24:51;1.50;;;0.30;;
73814;SDS011;62145;55.648;37.602;2024-01-10T03:27:17;2.37;;;0.50;;
73814;SDS011;62145;55.648;37.602;2024-01-10T03:29:43;2.83;;;0.40;;
73814;SDS011;62145;55.648;37.602;2024-01-10T03:32:09;2.00;;;0.50;;
73814;SDS011;62145;55.648;37.602;2024-01-10T03:34:35;2.58;;;0.55;;
73814;SDS011;62145;55.648;37.602;2024-01-10T03:37:01;3.00;;;0.50;;
73814;SDS011;62145;55.648;37.602;2024-01-10T03:39:27;2.90;;;0.80;;
73814;SDS011;62145;55.648;37.602;2024-01-10T03:41:53;2.70;;;0.70;;
73814;SDS011;62145;55.648;37.602;2024-01-10T03:44:19;2.78;;;0.63;;
73814;SDS011;62145;55.648;37.602;2024-01-10T03:46:45;2.07;;;0.57;;
73814;SDS011;62145;55.648;37.602;2024-01-10T03:49:11;4.40;;;1.40;;
73814;SDS011;62145;55.648;37.602;2024-01-10T03:51:37;4.20;;;0.98;;
73814;SDS011;62145;55.648;37.602;2024-01-10T03:54:05;5.30;;;1.48;;
73814;SDS011;62145;55.648;37.602;2024-01-10T03:56:31;5.83;;;1.33;;
73814;SDS011;62145;55.648;37.602;2024-01-10T03:58:57;3.72;;;1.10;;
73814;SDS011;62145;55.648;37.602;2024-01-10T04:01:24;4.60;;;1.13;;
73814;SDS011;62145;55.648;37.602;2024-01-10T04:03:50;7.05;;;2.50;;
73814;SDS011;62145;55.648;37.602;2024-01-10T04:06:16;8.02;;;2.55;;
73814;SDS011;62145;55.648;37.602;2024-01-10T04:08:42;8.30;;;3.23;;
73814;SDS011;62145;55.648;37.602;2024-01-10T04:11:08;11.43;;;3.30;;
73814;SDS011;62145;55.648;37.602;2024-01-10T04:13:34;12.68;;;3.58;;
73814;SDS011;62145;55.648;37.602;2024-01-10T04:16:01;7.45;;;2.97;;
73814;SDS011;62145;55.648;37.602;2024-01-10T04:18:26;9.93;;;3.43;;
73814;SDS011;62145;55.648;37.602;2024-01-10T04:20:52;8.98;;;3.17;;
73814;SDS011;62145;55.648;37.602;2024-01-10T04:23:18;8.85;;;3.40;;
73814;SDS011;62145;55.648;37.602;2024-01-10T04:25:44;7.43;;;2.73;;
73814;SDS011;62145;55.648;37.602;2024-01-10T04:28:10;9.95;;;3.30;;
73814;SDS011;62145;55.648;37.602;2024-01-10T04:30:36;14.40;;;4.28;;
73814;SDS011;62145;55.648;37.602;2024-01-10T04:33:02;10.43;;;4.18;;
73814;SDS011;62145;55.648;37.602;2024-01-10T04:35:28;10.33;;;3.63;;
73814;SDS011;62145;55.648;37.602;2024-01-10T04:37:54;8.43;;;3.28;;
73814;SDS011;62145;55.648;37.602;2024-01-10T04:40:21;8.50;;;3.25;;
73814;SDS011;62145;55.648;37.602;2024-01-10T04:42:47;8.98;;;3.35;;
73814;SDS011;62145;55.648;37.602;2024-01-10T04:45:13;7.23;;;2.80;;
73814;SDS011;62145;55.648;37.602;2024-01-10T04:47:40;8.30;;;2.83;;
73814;SDS011;62145;55.648;37.602;2024-01-10T04:50:06;8.98;;;3.55;;
73814;SDS011;62145;55.648;37.602;2024-01-10T04:52:32;8.05;;;3.25;;
73814;SDS011;62145;55.648;37.602;2024-01-10T04:54:58;10.30;;;3.65;;
73814;SDS011;62145;55.648;37.602;2024-01-10T04:57:24;12.13;;;4.40;;
73814;SDS011;62145;55.648;37.602;2024-01-10T04:59:50;12.02;;;4.43;;
73814;SDS011;62145;55.648;37.602;2024-01-10T05:02:16;8.43;;;3.17;;
73814;SDS011;62145;55.648;37.602;2024-01-10T05:04:42;9.05;;;3.67;;
73814;SDS011;62145;55.648;37.602;2024-01-10T05:07:08;9.10;;;2.67;;
73814;SDS011;62145;55.648;37.602;2024-01-10T05:09:34;8.35;;;2.65;;
73814;SDS011;62145;55.648;37.602;2024-01-10T05:12:02;9.50;;;3.42;;
73814;SDS011;62145;55.648;37.602;2024-01-10T05:14:28;7.20;;;2.45;;
73814;SDS011;62145;55.648;37.602;2024-01-10T05:16:54;9.20;;;3.67;;
73814;SDS011;62145;55.648;37.602;2024-01-10T05:19:20;8.40;;;3.03;;
73814;SDS011;62145;55.648;37.602;2024-01-10T05:21:46;12.73;;;4.07;;
73814;SDS011;62145;55.648;37.602;2024-01-10T05:24:12;7.88;;;3.00;;
73814;SDS011;62145;55.648;37.602;2024-01-10T05:26:38;7.10;;;2.33;;
73814;SDS011;62145;55.648;37.602;2024-01-10T05:29:04;8.70;;;3.20;;
73814;SDS011;62145;55.648;37.602;2024-01-10T05:31:30;9.98;;;3.33;;
73814;SDS011;62145;55.648;37.602;2024-01-10T05:33:56;9.93;;;3.30;;
73814;SDS011;62145;55.648;37.602;2024-01-10T05:36:22;7.00;;;2.40;;
73814;SDS011;62145;55.648;37.602;2024-01-10T05:38:49;5.68;;;1.85;;
73814;SDS011;62145;55.648;37.602;2024-01-10T05:41:16;7.80;;;3.03;;
73814;SDS011;62145;55.648;37.602;2024-01-10T05:43:42;6.57;;;2.42;;
73814;SDS011;62145;55.648;37.602;2024-01-10T05:46:10;7.53;;;2.40;;
73814;SDS011;62145;55.648;37.602;2024-01-10T05:48:36;6.88;;;2.33;;
73814;SDS011;62145;55.648;37.602;2024-01-10T05:51:02;5.93;;;2.15;;
73814;SDS011;62145;55.648;37.602;2024-01-10T05:53:28;9.48;;;3.10;;
73814;SDS011;62145;55.648;37.602;2024-01-10T05:55:54;11.27;;;3.72;;
73814;SDS011;62145;55.648;37.602;2024-01-10T05:58:20;9.60;;;3.43;;
73814;SDS011;62145;55.648;37.602;2024-01-10T06:00:47;5.45;;;1.85;;
73814;SDS011;62145;55.648;37.602;2024-01-10T06:03:13;6.13;;;2.45;;
73814;SDS011;62145;55.648;37.602;2024-01-10T06:05:39;9.23;;;3.08;;
73814;SDS011;62145;55.648;37.602;2024-01-10T06:08:05;10.17;;;3.73;;
73814;SDS011;62145;55.648;37.602;2024-01-10T06:10:32;10.90;;;3.65;;
73814;SDS011;62145;55.648;37.602;2024-01-10T06:12:58;9.05;;;2.88;;
73814;SDS011;62145;55.648;37.602;2024-01-10T06:15:24;6.68;;;2.42;;
73814;SDS011;62145;55.648;37.602;2024-01-10T06:17:50;8.00;;;2.47;;
73814;SDS011;62145;55.648;37.602;2024-01-10T06:20:16;7.35;;;2.80;;
73814;SDS011;62145;55.648;37.602;2024-01-10T06:22:44;10.23;;;3.55;;
73814;SDS011;62145;55.648;37.602;2024-01-10T06:25:12;7.63;;;3.08;;
73814;SDS011;62145;55.648;37.602;2024-01-10T06:27:39;6.47;;;2.42;;
73814;SDS011;62145;55.648;37.602;2024-01-10T06:30:06;11.57;;;4.20;;
73814;SDS011;62145;55.648;37.602;2024-01-10T06:32:33;10.75;;;3.33;;
73814;SDS011;62145;55.648;37.602;2024-01-10T06:35:00;10.50;;;3.90;;
73814;SDS011;62145;55.648;37.602;2024-01-10T06:37:31;9.93;;;3.95;;
73814;SDS011;62145;55.648;37.602;2024-01-10T06:39:57;11.70;;;3.80;;
73814;SDS011;62145;55.648;37.602;2024-01-10T06:42:23;9.47;;;2.70;;
73814;SDS011;62145;55.648;37.602;2024-01-10T06:44:49;10.82;;;3.55;;
73814;SDS011;62145;55.648;37.602;2024-01-10T06:47:15;5.65;;;2.55;;
73814;SDS011;62145;55.648;37.602;2024-01-10T06:49:41;5.28;;;2.22;;
73814;SDS011;62145;55.648;37.602;2024-01-10T06:52:07;7.88;;;2.38;;
73814;SDS011;62145;55.648;37.602;2024-01-10T06:54:33;6.33;;;2.13;;
73814;SDS011;62145;55.648;37.602;2024-01-10T06:57:01;7.10;;;2.42;;
73814;SDS011;62145;55.648;37.602;2024-01-10T06:59:27;7.18;;;2.90;;
73814;SDS011;62145;55.648;37.602;2024-01-10T07:01:53;8.85;;;2.58;;
73814;SDS011;62145;55.648;37.602;2024-01-10T07:04:22;11.27;;;3.53;;
73814;SDS011;62145;55.648;37.602;2024-01-10T07:06:50;10.03;;;2.67;;
73814;SDS011;62145;55.648;37.602;2024-01-10T07:09:16;6.75;;;2.40;;
73814;SDS011;62145;55.648;37.602;2024-01-10T07:11:46;6.40;;;2.28;;
73814;SDS011;62145;55.648;37.602;2024-01-10T07:14:14;10.43;;;2.72;;
73814;SDS011;62145;55.648;37.602;2024-01-10T07:16:40;8.30;;;3.08;;
73814;SDS011;62145;55.648;37.602;2024-01-10T07:19:11;10.50;;;3.83;;
73814;SDS011;62145;55.648;37.602;2024-01-10T07:21:47;8.25;;;2.88;;
73814;SDS011;62145;55.648;37.602;2024-01-10T07:24:13;7.97;;;3.13;;
73814;SDS011;62145;55.648;37.602;2024-01-10T07:26:40;9.18;;;3.70;;
73814;SDS011;62145;55.648;37.602;2024-01-10T07:29:06;7.45;;;2.67;;
73814;SDS011;62145;55.648;37.602;2024-01-10T07:31:35;8.05;;;2.88;;
73814;SDS011;62145;55.648;37.602;2024-01-10T07:34:01;9.38;;;2.95;;
73814;SDS011;62145;55.648;37.602;2024-01-10T07:36:31;12.07;;;3.70;;
73814;SDS011;62145;55.648;37.602;2024-01-10T07:39:02;9.85;;;3.70;;
73814;SDS011;62145;55.648;37.602;2024-01-10T07:41:28;11.60;;;3.77;;
73814;SDS011;62145;55.648;37.602;2024-01-10T07:43:55;9.45;;;2.67;;
73814;SDS011;62145;55.648;37.602;2024-01-10T07:46:21;8.10;;;2.40;;
73814;SDS011;62145;55.648;37.602;2024-01-10T07:48:48;8.13;;;3.13;;
73814;SDS011;62145;55.648;37.602;2024-01-10T07:51:14;10.27;;;3.60;;
73814;SDS011;62145;55.648;37.602;2024-01-10T07:53:40;9.00;;;3.53;;
73814;SDS011;62145;55.648;37.602;2024-01-10T07:56:07;8.73;;;3.50;;
73814;SDS011;62145;55.648;37.602;2024-01-10T07:58:33;12.90;;;3.97;;
73814;SDS011;62145;55.648;37.602;2024-01-10T08:00:59;6.90;;;2.05;;
73814;SDS011;62145;55.648;37.602;2024-01-10T08:03:25;9.95;;;3.53;;
73814;SDS011;62145;55.648;37.602;2024-01-10T08:05:54;10.97;;;3.67;;
73814;SDS011;62145;55.648;37.602;2024-01-10T08:08:23;8.60;;;3.05;;
73814;SDS011;62145;55.648;37.602;2024-01-10T08:10:49;9.13;;;3.60;;
73814;SDS011;62145;55.648;37.602;2024-01-10T08:13:15;6.78;;;2.63;;
73814;SDS011;62145;55.648;37.602;2024-01-10T08:15:41;11.00;;;4.00;;
73814;SDS011;62145;55.648;37.602;2024-01-10T08:18:10;12.10;;;4.43;;
73814;SDS011;62145;55.648;37.602;2024-01-10T08:20:37;11.18;;;3.72;;
73814;SDS011;62145;55.648;37.602;2024-01-10T08:23:04;13.57;;;4.30;;
73814;SDS011;62145;55.648;37.602;2024-01-10T08:25:30;13.38;;;3.83;;
73814;SDS011;62145;55.648;37.602;2024-01-10T08:27:56;10.83;;;3.93;;
73814;SDS011;62145;55.648;37.602;2024-01-10T08:30:26;12.52;;;4.10;;
73814;SDS011;62145;55.648;37.602;2024-01-10T08:32:52;11.00;;;4.32;;
73814;SDS011;62145;55.648;37.602;2024-01-10T08:35:18;15.10;;;4.03;;
73814;SDS011;62145;55.648;37.602;2024-01-10T08:37:44;11.90;;;3.50;;
73814;SDS011;62145;55.648;37.602;2024-01-10T08:40:12;11.07;;;4.27;;
73814;SDS011;62145;55.648;37.602;2024-01-10T08:42:41;8.13;;;3.60;;
73814;SDS011;62145;55.648;37.602;2024-01-10T08:45:08;13.55;;;4.88;;
73814;SDS011;62145;55.648;37.602;2024-01-10T08:47:37;12.38;;;4.20;;
73814;SDS011;62145;55.648;37.602;2024-01-10T08:50:04;10.45;;;3.80;;
73814;SDS011;62145;55.648;37.602;2024-01-10T08:52:36;11.47;;;4.27;;
73814;SDS011;62145;55.648;37.602;2024-01-10T08:55:05;10.07;;;4.47;;
73814;SDS011;62145;55.648;37.602;2024-01-10T08:57:31;12.45;;;4.43;;
73814;SDS011;62145;55.648;37.602;2024-01-10T08:59:57;9.60;;;4.10;;
73814;SDS011;62145;55.648;37.602;2024-01-10T09:02:23;11.30;;;4.27;;
73814;SDS011;62145;55.648;37.602;2024-01-10T09:04:49;14.95;;;5.28;;
73814;SDS011;62145;55.648;37.602;2024-01-10T09:07:16;10.30;;;3.88;;
73814;SDS011;62145;55.648;37.602;2024-01-10T09:09:43;15.07;;;4.68;;
73814;SDS011;62145;55.648;37.602;2024-01-10T09:12:09;11.73;;;4.22;;
73814;SDS011;62145;55.648;37.602;2024-01-10T09:14:35;6.80;;;2.30;;
73814;SDS011;62145;55.648;37.602;2024-01-10T09:17:01;9.15;;;3.60;;
73814;SDS011;62145;55.648;37.602;2024-01-10T09:19:30;10.50;;;4.35;;
73814;SDS011;62145;55.648;37.602;2024-01-10T09:21:58;12.10;;;4.28;;
73814;SDS011;62145;55.648;37.602;2024-01-10T09:24:24;7.90;;;2.88;;
73814;SDS011;62145;55.648;37.602;2024-01-10T09:26:52;11.33;;;4.80;;
73814;SDS011;62145;55.648;37.602;2024-01-10T09:29:21;9.98;;;3.75;;
73814;SDS011;62145;55.648;37.602;2024-01-10T09:31:48;10.13;;;3.50;;
73814;SDS011;62145;55.648;37.602;2024-01-10T09:34:14;10.15;;;4.18;;
73814;SDS011;62145;55.648;37.602;2024-01-10T09:36:40;11.80;;;3.78;;
73814;SDS011;62145;55.648;37.602;2024-01-10T09:39:08;9.13;;;3.50;;
73814;SDS011;62145;55.648;37.602;2024-01-10T09:41:45;9.80;;;3.17;;
73814;SDS011;62145;55.648;37.602;2024-01-10T09:44:14;9.95;;;4.00;;
73814;SDS011;62145;55.648;37.602;2024-01-10T09:46:47;11.13;;;3.22;;
73814;SDS011;62145;55.648;37.602;2024-01-10T09:49:15;10.35;;;4.43;;
73814;SDS011;62145;55.648;37.602;2024-01-10T09:51:40;9.20;;;3.27;;
73814;SDS011;62145;55.648;37.602;2024-01-10T09:54:06;9.38;;;3.38;;
73814;SDS011;62145;55.648;37.602;2024-01-10T09:56:33;8.40;;;2.70;;
73814;SDS011;62145;55.648;37.602;2024-01-10T09:58:59;11.90;;;4.00;;
73814;SDS011;62145;55.648;37.602;2024-01-10T10:01:30;10.87;;;3.70;;
73814;SDS011;62145;55.648;37.602;2024-01-10T10:03:57;10.70;;;3.90;;
73814;SDS011;62145;55.648;37.602;2024-01-10T10:06:24;10.45;;;4.22;;
73814;SDS011;62145;55.648;37.602;2024-01-10T10:08:50;12.88;;;4.03;;
73814;SDS011;62145;55.648;37.602;2024-01-10T10:11:16;10.37;;;3.80;;
73814;SDS011;62145;55.648;37.602;2024-01-10T10:13:42;10.77;;;3.60;;
73814;SDS011;62145;55.648;37.602;2024-01-10T10:16:08;9.70;;;4.30;;
73814;SDS011;62145;55.648;37.602;2024-01-10T10:18:39;10.40;;;3.75;;
73814;SDS011;62145;55.648;37.602;2024-01-10T10:23:37;10.47;;;3.53;;
73814;SDS011;62145;55.648;37.602;2024-01-10T10:28:40;9.50;;;3.70;;
73814;SDS011;62145;55.648;37.602;2024-01-10T10:31:06;10.35;;;3.85;;
73814;SDS011;62145;55.648;37.602;2024-01-10T10:33:33;16.35;;;4.70;;
73814;SDS011;62145;55.648;37.602;2024-01-10T10:35:59;13.80;;;4.70;;
73814;SDS011;62145;55.648;37.602;2024-01-10T10:38:25;14.48;;;4.90;;
73814;SDS011;62145;55.648;37.602;2024-01-10T10:40:51;10.05;;;4.25;;
73814;SDS011;62145;55.648;37.602;2024-01-10T10:43:18;14.95;;;4.68;;
73814;SDS011;62145;55.648;37.602;2024-01-10T10:45:48;12.20;;;5.00;;
73814;SDS011;62145;55.648;37.602;2024-01-10T10:48:18;10.80;;;4.17;;
73814;SDS011;62145;55.648;37.602;2024-01-10T10:53:43;13.90;;;4.97;;
73814;SDS011;62145;55.648;37.602;2024-01-10T10:56:12;12.10;;;4.10;;
73814;SDS011;62145;55.648;37.602;2024-01-10T10:58:39;10.82;;;4.03;;
73814;SDS011;62145;55.648;37.602;2024-01-10T11:01:12;11.50;;;4.03;;
73814;SDS011;62145;55.648;37.602;2024-01-10T11:03:39;10.07;;;4.07;;
73814;SDS011;62145;55.648;37.602;2024-01-10T11:06:07;10.02;;;4.25;;
73814;SDS011;62145;55.648;37.602;2024-01-10T11:08:35;12.15;;;4.32;;
73814;SDS011;62145;55.648;37.602;2024-01-10T11:11:04;11.40;;;4.13;;
73814;SDS011;62145;55.648;37.602;2024-01-10T11:24:48;10.85;;;4.60;;
73814;SDS011;62145;55.648;37.602;2024-01-10T11:27:14;9.87;;;3.63;;
73814;SDS011;62145;55.648;37.602;2024-01-10T11:29:41;12.05;;;4.78;;
73814;SDS011;62145;55.648;37.602;2024-01-10T11:32:15;10.77;;;4.57;;
73814;SDS011;62145;55.648;37.602;2024-01-10T11:35:27;12.10;;;4.60;;
73814;SDS011;62145;55.648;37.602;2024-01-10T11:37:43;12.18;;;4.45;;
73814;SDS011;62145;55.648;37.602;2024-01-10T11:40:11;13.93;;;4.93;;
73814;SDS011;62145;55.648;37.602;2024-01-10T11:42:44;9.80;;;4.10;;
73814;SDS011;62145;55.648;37.602;2024-01-10T11:47:56;13.65;;;5.00;;
73814;SDS011;62145;55.648;37.602;2024-01-10T11:50:22;9.35;;;2.88;;
73814;SDS011;62145;55.648;37.602;2024-01-10T11:52:52;13.03;;;4.90;;
73814;SDS011;62145;55.648;37.602;2024-01-10T11:56:08;9.98;;;3.58;;
73814;SDS011;62145;55.648;37.602;2024-01-10T11:58:15;13.27;;;4.63;;
73814;SDS011;62145;55.648;37.602;2024-01-10T12:00:42;12.52;;;4.72;;
73814;SDS011;62145;55.648;37.602;2024-01-10T12:03:09;13.25;;;5.45;;
73814;SDS011;62145;55.648;37.602;2024-01-10T12:05:36;14.13;;;4.30;;
73814;SDS011;62145;55.648;37.602;2024-01-10T12:08:10;12.77;;;4.47;;
73814;SDS011;62145;55.648;37.602;2024-01-10T12:10:46;11.95;;;4.45;;
73814;SDS011;62145;55.648;37.602;2024-01-10T12:13:12;10.75;;;4.55;;
73814;SDS011;62145;55.648;37.602;2024-01-10T12:15:38;12.60;;;4.75;;
73814;SDS011;62145;55.648;37.602;2024-01-10T12:18:04;12.37;;;4.97;;
73814;SDS011;62145;55.648;37.602;2024-01-10T12:20:31;11.95;;;4.00;;
73814;SDS011;62145;55.648;37.602;2024-01-10T12:22:57;7.95;;;2.72;;
73814;SDS011;62145;55.648;37.602;2024-01-10T12:25:23;8.30;;;3.55;;
73814;SDS011;62145;55.648;37.602;2024-01-10T12:27:50;11.37;;;4.37;;
73814;SDS011;62145;55.648;37.602;2024-01-10T12:30:16;16.48;;;4.97;;
73814;SDS011;62145;55.648;37.602;2024-01-10T12:32:43;6.18;;;2.22;;
73814;SDS011;62145;55.648;37.602;2024-01-10T12:35:09;13.18;;;5.10;;
73814;SDS011;62145;55.648;37.602;2024-01-10T12:37:35;12.60;;;5.07;;
73814;SDS011;62145;55.648;37.602;2024-01-10T12:40:02;10.90;;;4.70;;
73814;SDS011;62145;55.648;37.602;2024-01-10T12:42:30;13.88;;;5.57;;
73814;SDS011;62145;55.648;37.602;2024-01-10T12:44:57;14.00;;;5.53;;
73814;SDS011;62145;55.648;37.602;2024-01-10T12:47:23;14.40;;;5.32;;
73814;SDS011;62145;55.648;37.602;2024-01-10T12:49:50;15.07;;;5.07;;
73814;SDS011;62145;55.648;37.602;2024-01-10T12:52:16;11.70;;;4.73;;
73814;SDS011;62145;55.648;37.602;2024-01-10T12:54:44;8.57;;;2.95;;
73814;SDS011;62145;55.648;37.602;2024-01-10T12:57:10;11.82;;;4.05;;
73814;SDS011;62145;55.648;37.602;2024-01-10T12:59:36;10.93;;;4.25;;
73814;SDS011;62145;55.648;37.602;2024-01-10T13:02:02;8.95;;;3.05;;
73814;SDS011;62145;55.648;37.602;2024-01-10T13:04:29;9.53;;;3.30;;
73814;SDS011;62145;55.648;37.602;2024-01-10T13:06:56;10.85;;;3.90;;
73814;SDS011;62145;55.648;37.602;2024-01-10T13:09:22;9.52;;;3.85;;
73814;SDS011;62145;55.648;37.602;2024-01-10T13:11:48;10.82;;;3.45;;
73814;SDS011;62145;55.648;37.602;2024-01-10T13:14:14;10.73;;;4.20;;
73814;SDS011;62145;55.648;37.602;2024-01-10T13:16:40;11.47;;;4.40;;
73814;SDS011;62145;55.648;37.602;2024-01-10T13:19:07;13.70;;;5.05;;
73814;SDS011;62145;55.648;37.602;2024-01-10T13:21:33;11.35;;;4.50;;
73814;SDS011;62145;55.648;37.602;2024-01-10T13:24:00;13.40;;;4.45;;
73814;SDS011;62145;55.648;37.602;2024-01-10T13:26:26;9.32;;;3.35;;
73814;SDS011;62145;55.648;37.602;2024-01-10T13:28:54;12.23;;;3.97;;
73814;SDS011;62145;55.648;37.602;2024-01-10T13:31:20;10.98;;;4.65;;
73814;SDS011;62145;55.648;37.602;2024-01-10T13:33:46;11.27;;;4.13;;
73814;SDS011;62145;55.648;37.602;2024-01-10T13:36:18;10.27;;;4.07;;
73814;SDS011;62145;55.648;37.602;2024-01-10T13:38:44;12.40;;;4.57;;
73814;SDS011;62145;55.648;37.602;2024-01-10T13:41:10;11.52;;;4.22;;
73814;SDS011;62145;55.648;37.602;2024-01-10T13:43:36;11.77;;;4.38;;
73814;SDS011;62145;55.648;37.602;2024-01-10T13:46:02;11.60;;;4.57;;
73814;SDS011;62145;55.648;37.602;2024-01-10T13:48:29;15.77;;;4.75;;
73814;SDS011;62145;55.648;37.602;2024-01-10T13:50:55;19.30;;;4.53;;
73814;SDS011;62145;55.648;37.602;2024-01-10T13:53:21;12.10;;;4.32;;
73814;SDS011;62145;55.648;37.602;2024-01-10T13:55:47;11.75;;;4.53;;
73814;SDS011;62145;55.648;37.602;2024-01-10T13:58:13;14.13;;;4.97;;
73814;SDS011;62145;55.648;37.602;2024-01-10T14:00:39;11.97;;;4.27;;
73814;SDS011;62145;55.648;37.602;2024-01-10T14:03:05;13.40;;;5.43;;
73814;SDS011;62145;55.648;37.602;2024-01-10T14:05:31;17.30;;;5.53;;
73814;SDS011;62145;55.648;37.602;2024-01-10T14:07:57;15.55;;;5.50;;
73814;SDS011;62145;55.648;37.602;2024-01-10T14:10:23;20.75;;;5.10;;
73814;SDS011;62145;55.648;37.602;2024-01-10T14:12:49;16.83;;;6.17;;
73814;SDS011;62145;55.648;37.602;2024-01-10T14:15:15;18.77;;;5.72;;
73814;SDS011;62145;55.648;37.602;2024-01-10T14:17:41;16.33;;;5.13;;
73814;SDS011;62145;55.648;37.602;2024-01-10T14:20:08;15.05;;;5.35;;
73814;SDS011;62145;55.648;37.602;2024-01-10T14:22:35;11.93;;;5.07;;
73814;SDS011;62145;55.648;37.602;2024-01-10T14:25:02;17.98;;;5.43;;
73814;SDS011;62145;55.648;37.602;2024-01-10T14:27:29;15.20;;;4.88;;
73814;SDS011;62145;55.648;37.602;2024-01-10T14:29:55;12.70;;;4.78;;
73814;SDS011;62145;55.648;37.602;2024-01-10T14:32:24;12.30;;;4.97;;
73814;SDS011;62145;55.648;37.602;2024-01-10T14:34:51;8.68;;;3.65;;
73814;SDS011;62145;55.648;37.602;2024-01-10T14:37:17;15.35;;;4.40;;
73814;SDS011;62145;55.648;37.602;2024-01-10T14:39:43;11.43;;;4.53;;
73814;SDS011;62145;55.648;37.602;2024-01-10T14:42:09;13.52;;;4.78;;
73814;SDS011;62145;55.648;37.602;2024-01-10T14:44:35;11.63;;;4.67;;
73814;SDS011;62145;55.648;37.602;2024-01-10T14:47:01;13.98;;;4.93;;